createdAt,value
2019-05-16T00:02:08.936Z,97957.67
2019-05-16T00:04:38.234Z,97950.92
2019-05-16T00:07:10.680Z,97948.64
2019-05-16T00:09:41.187Z,97953.38
2019-05-16T00:12:10.674Z,97949.11
2019-05-16T00:14:40.021Z,97940.80
2019-05-16T00:17:10.837Z,97946.80
2019-05-16T00:19:41.555Z,97944.77
2019-05-16T00:22:11.075Z,97937.41
2019-05-16T00:24:41.430Z,97934.66
2019-05-16T00:27:14.447Z,97928.16
2019-05-16T00:29:48.621Z,97920.95
2019-05-16T00:32:19.145Z,97923.85
2019-05-16T00:34:48.708Z,97926.69
2019-05-16T00:37:19.201Z,97918.55
2019-05-16T00:39:49.736Z,97920.57
2019-05-16T00:42:20.534Z,97911.36
2019-05-16T00:44:50.951Z,97912.56
2019-05-16T00:47:20.354Z,97907.78
2019-05-16T00:49:49.681Z,97898.58
2019-05-16T00:52:20.172Z,97904.09
2019-05-16T00:54:50.263Z,97905.94
2019-05-16T00:57:20.823Z,97896.47
2019-05-16T00:59:51.148Z,97900.59
2019-05-16T01:02:19.655Z,97898.63
2019-05-16T01:04:50.126Z,97897.29
2019-05-16T01:07:20.639Z,97882.34
2019-05-16T01:09:51.443Z,97884.07
2019-05-16T01:12:20.957Z,97879.81
2019-05-16T01:14:53.298Z,97882.69
2019-05-16T01:17:22.676Z,97874.48
2019-05-16T01:19:54.747Z,97871.20
2019-05-16T01:22:25.154Z,97870.90
2019-05-16T01:24:55.686Z,97866.51
2019-05-16T01:27:27.799Z,97864.75
2019-05-16T01:29:59.947Z,97862.90
2019-05-16T01:32:32.107Z,97867.28
2019-05-16T01:35:00.947Z,97868.88
2019-05-16T01:37:32.405Z,97871.42
2019-05-16T01:40:01.782Z,97868.02
2019-05-16T01:42:33.503Z,97863.88
2019-05-16T01:45:03.968Z,97867.23
2019-05-16T01:47:34.334Z,97855.37
2019-05-16T01:50:05.671Z,97857.34
2019-05-16T01:52:34.173Z,97855.80
2019-05-16T01:55:04.718Z,97850.77
2019-05-16T01:57:35.310Z,97845.38
2019-05-16T02:00:08.648Z,97840.56
2019-05-16T02:02:38.685Z,97841.84
2019-05-16T02:05:09.281Z,97835.99
2019-05-16T02:07:38.950Z,97837.16
2019-05-16T02:10:11.737Z,97833.11
2019-05-16T02:12:43.382Z,97825.06
2019-05-16T02:15:18.180Z,97827.60
2019-05-16T02:17:48.563Z,97825.06
2019-05-16T02:20:19.404Z,97822.09
2019-05-16T02:22:49.712Z,97822.78
2019-05-16T02:25:20.425Z,97818.18
2019-05-16T02:27:50.935Z,97812.45
2019-05-16T02:30:21.919Z,97807.60
2019-05-16T02:32:52.656Z,97812.45
2019-05-16T02:35:22.083Z,97804.88
2019-05-16T02:37:55.229Z,97805.01
2019-05-16T02:40:25.775Z,97805.95
2019-05-16T02:42:56.373Z,97796.96
2019-05-16T02:45:32.142Z,97794.11
2019-05-16T02:48:01.226Z,97792.52
2019-05-16T02:50:32.022Z,97788.13
2019-05-16T02:53:02.317Z,97791.58
2019-05-16T02:55:31.790Z,97782.97
2019-05-16T02:58:02.740Z,97779.50
2019-05-16T03:00:42.018Z,97784.44
2019-05-16T03:03:11.984Z,97778.15
2019-05-16T03:05:44.095Z,97778.27
2019-05-16T03:08:14.193Z,97772.52
2019-05-16T03:10:43.810Z,97771.04
2019-05-16T03:13:14.109Z,97767.13
2019-05-16T03:15:47.131Z,97758.71
2019-05-16T03:18:21.353Z,97763.09
2019-05-16T03:20:52.952Z,97752.73
2019-05-16T03:23:22.431Z,97750.67
2019-05-16T03:25:54.704Z,97750.11
2019-05-16T03:28:27.094Z,97753.95
2019-05-16T03:30:57.503Z,97751.86
2019-05-16T03:33:39.096Z,97739.72
2019-05-16T03:36:03.999Z,97739.63
2019-05-16T03:38:31.119Z,97734.80
2019-05-16T03:41:01.750Z,97737.50
2019-05-16T03:43:32.721Z,97728.08
2019-05-16T03:46:03.385Z,97726.92
2019-05-16T03:48:40.658Z,97720.38
2019-05-16T03:51:11.417Z,97723.01
2019-05-16T03:53:40.475Z,97721.19
2019-05-16T03:56:11.338Z,97714.77
2019-05-16T03:58:41.786Z,97704.57
2019-05-16T04:01:11.727Z,97707.80
2019-05-16T04:03:42.174Z,97708.03
2019-05-16T04:06:12.911Z,97710.80
2019-05-16T04:08:43.509Z,97711.05
2019-05-16T04:11:13.806Z,97705.64
2019-05-16T04:13:43.222Z,97705.78
2019-05-16T04:16:13.580Z,97713.38
2019-05-16T04:18:42.980Z,97712.09
2019-05-16T04:21:17.422Z,97710.02
2019-05-16T04:23:46.038Z,97707.75
2019-05-16T04:26:15.420Z,97708.06
2019-05-16T04:28:45.808Z,97696.72
2019-05-16T04:31:15.209Z,97694.28
2019-05-16T04:33:45.787Z,97696.81
2019-05-16T04:36:16.189Z,97696.12
2019-05-16T04:38:46.989Z,97697.30
2019-05-16T04:41:20.702Z,97698.23
2019-05-16T04:43:50.606Z,97696.16
2019-05-16T04:46:21.625Z,97697.98
2019-05-16T04:48:52.082Z,97697.67
2019-05-16T04:51:24.160Z,97699.72
2019-05-16T04:53:53.745Z,97695.48
2019-05-16T04:56:24.919Z,97703.86
2019-05-16T04:58:54.456Z,97703.16
2019-05-16T05:01:25.050Z,97699.84
2019-05-16T05:04:06.289Z,97702.59
2019-05-16T05:06:25.457Z,97699.83
2019-05-16T05:09:03.306Z,97703.48
2019-05-16T05:11:30.653Z,97694.64
2019-05-16T05:14:00.950Z,97695.70
2019-05-16T05:16:30.782Z,97691.77
2019-05-16T05:19:01.449Z,97694.20
2019-05-16T05:21:31.488Z,97689.48
2019-05-16T05:24:03.192Z,97694.95
2019-05-16T05:26:31.967Z,97683.40
2019-05-16T05:29:02.567Z,97687.84
2019-05-16T05:31:35.167Z,97685.64
2019-05-16T05:34:03.263Z,97682.50
2019-05-16T05:36:33.759Z,97684.70
2019-05-16T05:39:11.084Z,97685.00
2019-05-16T05:41:35.645Z,97684.55
2019-05-16T05:44:07.248Z,97681.00
2019-05-16T05:46:39.927Z,97683.87
2019-05-16T05:49:10.487Z,97681.72
2019-05-16T05:51:40.609Z,97681.58
2019-05-16T05:54:11.301Z,97678.88
2019-05-16T05:56:42.106Z,97680.47
2019-05-16T05:59:12.544Z,97670.02
2019-05-16T06:01:43.770Z,97671.61
2019-05-16T06:04:14.379Z,97665.33
2019-05-16T06:06:45.041Z,97666.58
2019-05-16T06:09:26.381Z,97672.11
2019-05-16T06:11:46.741Z,97676.34
2019-05-16T06:14:21.020Z,97671.56
2019-05-16T06:16:51.101Z,97674.38
2019-05-16T06:19:20.582Z,97671.66
2019-05-16T06:21:50.977Z,97673.98
2019-05-16T06:24:20.564Z,97668.44
2019-05-16T06:26:50.468Z,97665.66
2019-05-16T06:29:22.819Z,97662.33
2019-05-16T06:31:52.608Z,97660.56
2019-05-16T06:34:22.927Z,97665.88
2019-05-16T06:36:53.529Z,97663.51
2019-05-16T06:39:37.514Z,97668.34
2019-05-16T06:42:00.410Z,97663.20
2019-05-16T06:44:30.881Z,97663.30
2019-05-16T06:47:15.792Z,97667.17
2019-05-16T06:49:33.688Z,97662.45
2019-05-16T06:52:04.200Z,97667.56
2019-05-16T06:54:33.569Z,97661.50
2019-05-16T06:57:04.386Z,97663.19
2019-05-16T06:59:33.785Z,97655.22
2019-05-16T07:02:05.289Z,97663.02
2019-05-16T07:04:35.663Z,97656.64
2019-05-16T07:07:09.497Z,97660.35
2019-05-16T07:09:41.779Z,97659.09
2019-05-16T07:12:11.307Z,97647.59
2019-05-16T07:14:41.819Z,97655.96
2019-05-16T07:17:11.514Z,97656.02
2019-05-16T07:19:43.447Z,97653.69
2019-05-16T07:22:13.261Z,97651.44
2019-05-16T07:24:43.963Z,97649.56
2019-05-16T07:27:13.325Z,97646.77
2019-05-16T07:29:43.855Z,97644.05
2019-05-16T07:32:13.319Z,97637.64
2019-05-16T07:34:42.289Z,97645.48
2019-05-16T07:37:11.650Z,97638.22
2019-05-16T07:39:42.218Z,97634.56
2019-05-16T07:42:11.729Z,97638.58
2019-05-16T07:44:42.367Z,97631.45
2019-05-16T07:47:11.923Z,97639.58
2019-05-16T07:49:43.764Z,97633.92
2019-05-16T07:52:14.625Z,97636.90
2019-05-16T07:54:44.906Z,97631.30
2019-05-16T07:57:20.474Z,97632.71
2019-05-16T07:59:52.563Z,97630.16
2019-05-16T08:02:22.129Z,97629.74
2019-05-16T08:04:51.599Z,97622.45
2019-05-16T08:07:22.111Z,97626.20
2019-05-16T08:09:52.623Z,97622.63
2019-05-16T08:12:25.977Z,97617.28
2019-05-16T08:14:53.439Z,97621.26
2019-05-16T08:17:24.464Z,97618.43
2019-05-16T08:19:53.878Z,97615.49
2019-05-16T08:22:22.880Z,97612.84
2019-05-16T08:24:54.544Z,97609.45
2019-05-16T08:27:23.935Z,97611.93
2019-05-16T08:29:54.415Z,97615.76
2019-05-16T08:32:24.914Z,97608.63
2019-05-16T08:34:53.756Z,97606.11
2019-05-16T08:37:36.843Z,97607.40
2019-05-16T08:39:56.345Z,97609.09
2019-05-16T08:42:26.743Z,97604.41
2019-05-16T08:44:57.149Z,97605.98
2019-05-16T08:47:27.553Z,97603.44
2019-05-16T08:50:00.679Z,97603.19
2019-05-16T08:52:31.551Z,97599.78
2019-05-16T08:55:04.069Z,97594.06
2019-05-16T08:57:33.637Z,97596.07
2019-05-16T09:00:05.815Z,97595.75
2019-05-16T09:02:36.831Z,97596.02
2019-05-16T09:05:12.999Z,97599.91
2019-05-16T09:07:40.097Z,97596.48
2019-05-16T09:10:45.936Z,97595.30
2019-05-16T09:12:47.328Z,97588.12
2019-05-16T09:15:17.165Z,97584.42
2019-05-16T09:17:48.408Z,97582.69
2019-05-16T09:20:19.131Z,97578.88
2019-05-16T09:22:49.623Z,97576.23
2019-05-16T09:25:19.110Z,97573.40
2019-05-16T09:27:48.468Z,97573.99
2019-05-16T09:30:19.008Z,97578.36
2019-05-16T09:32:49.490Z,97577.78
2019-05-16T09:35:21.357Z,97574.47
2019-05-16T09:37:52.289Z,97567.89
2019-05-16T09:40:21.895Z,97570.58
2019-05-16T09:42:50.379Z,97572.97
2019-05-16T09:45:20.472Z,97572.98
2019-05-16T09:47:51.097Z,97568.07
2019-05-16T09:50:22.105Z,97570.25
2019-05-16T09:52:56.576Z,97569.22
2019-05-16T09:55:27.084Z,97562.91
2019-05-16T09:57:58.973Z,97563.41
2019-05-16T10:00:29.533Z,97560.83
2019-05-16T10:02:59.265Z,97566.30
2019-05-16T10:05:29.761Z,97561.63
2019-05-16T10:07:59.337Z,97557.05
2019-05-16T10:10:28.855Z,97563.95
2019-05-16T10:12:59.310Z,97556.48
2019-05-16T10:15:30.026Z,97558.28
2019-05-16T10:18:00.534Z,97554.71
2019-05-16T10:20:30.939Z,97553.70
2019-05-16T10:23:01.557Z,97557.89
2019-05-16T10:25:37.534Z,97548.23
2019-05-16T10:28:06.076Z,97544.69
2019-05-16T10:30:37.651Z,97546.14
2019-05-16T10:33:07.197Z,97544.70
2019-05-16T10:35:39.206Z,97544.27
2019-05-16T10:38:08.626Z,97544.61
2019-05-16T10:40:37.458Z,97543.80
2019-05-16T10:43:07.478Z,97538.46
2019-05-16T10:45:37.409Z,97533.89
2019-05-16T10:48:07.908Z,97532.14
2019-05-16T10:50:38.329Z,97527.30
2019-05-16T10:53:27.955Z,97528.08
2019-05-16T10:55:39.960Z,97524.31
2019-05-16T10:58:11.513Z,97517.38
2019-05-16T11:01:07.630Z,97516.00
2019-05-16T11:03:12.083Z,97518.00
2019-05-16T11:05:42.421Z,97517.20
2019-05-16T11:08:14.443Z,97517.77
2019-05-16T11:10:47.486Z,97513.77
2019-05-16T11:13:21.050Z,97517.06
2019-05-16T11:15:50.351Z,97511.44
2019-05-16T11:18:21.347Z,97514.27
2019-05-16T11:20:52.475Z,97512.77
2019-05-16T11:23:23.825Z,97515.22
2019-05-16T11:25:55.311Z,97514.72
2019-05-16T11:28:25.686Z,97516.22
2019-05-16T11:31:02.913Z,97519.01
2019-05-16T11:33:28.577Z,97514.24
2019-05-16T11:35:58.985Z,97508.11
2019-05-16T11:38:30.641Z,97504.26
2019-05-16T11:41:00.268Z,97506.08
2019-05-16T11:43:30.614Z,97506.06
2019-05-16T11:46:01.149Z,97505.23
2019-05-16T11:48:30.631Z,97500.50
2019-05-16T11:51:01.001Z,97497.11
2019-05-16T11:53:31.658Z,97497.81
2019-05-16T11:56:02.371Z,97494.28
2019-05-16T11:58:32.848Z,97496.20
2019-05-16T12:01:07.278Z,97495.20
2019-05-16T12:03:37.542Z,97500.25
2019-05-16T12:06:10.476Z,97498.33
2019-05-16T12:08:38.472Z,97492.37
2019-05-16T12:11:07.906Z,97494.91
2019-05-16T12:13:38.309Z,97488.88
2019-05-16T12:16:08.716Z,97484.98
2019-05-16T12:18:37.510Z,97482.28
2019-05-16T12:21:07.991Z,97484.86
2019-05-16T12:23:37.712Z,97479.52
2019-05-16T12:26:08.240Z,97483.00
2019-05-16T12:28:38.776Z,97481.26
2019-05-16T12:31:07.592Z,97472.50
2019-05-16T12:33:38.073Z,97471.88
2019-05-16T12:36:08.821Z,97474.44
2019-05-16T12:38:39.331Z,97470.13
2019-05-16T12:41:08.796Z,97468.62
2019-05-16T12:43:48.832Z,97464.48
2019-05-16T12:46:09.815Z,97467.13
2019-05-16T12:48:42.102Z,97466.08
2019-05-16T12:51:14.701Z,97464.66
2019-05-16T12:53:47.710Z,97461.42
2019-05-16T12:56:17.518Z,97462.52
2019-05-16T12:58:50.647Z,97459.23
2019-05-16T13:01:29.515Z,97459.13
2019-05-16T13:03:52.678Z,97456.84
2019-05-16T13:06:23.548Z,97446.20
2019-05-16T13:08:54.220Z,97449.89
2019-05-16T13:11:26.933Z,97447.20
2019-05-16T13:14:03.301Z,97450.05
2019-05-16T13:16:28.303Z,97439.45
2019-05-16T13:18:57.565Z,97439.34
2019-05-16T13:21:28.233Z,97430.33
2019-05-16T13:23:58.764Z,97432.04
2019-05-16T13:26:28.278Z,97441.45
2019-05-16T13:28:58.937Z,97437.07
2019-05-16T13:31:29.560Z,97439.53
2019-05-16T13:34:01.645Z,97433.56
2019-05-16T13:36:32.019Z,97432.25
2019-05-16T13:39:07.821Z,97428.70
2019-05-16T13:41:37.837Z,97432.09
2019-05-16T13:44:18.351Z,97427.08
2019-05-16T13:46:41.816Z,97425.11
2019-05-16T13:49:12.836Z,97420.91
2019-05-16T13:51:44.367Z,97425.69
2019-05-16T13:54:14.697Z,97416.71
2019-05-16T13:56:44.128Z,97419.63
2019-05-16T13:59:13.588Z,97417.83
2019-05-16T14:01:43.083Z,97415.48
2019-05-16T14:04:12.502Z,97416.95
2019-05-16T14:06:41.894Z,97414.83
2019-05-16T14:09:13.827Z,97422.91
2019-05-16T14:11:43.283Z,97415.11
2019-05-16T14:14:13.645Z,97417.69
2019-05-16T14:16:43.016Z,97409.40
2019-05-16T14:19:13.692Z,97416.59
2019-05-16T14:21:44.073Z,97415.70
2019-05-16T14:24:17.834Z,97418.72
2019-05-16T14:26:47.134Z,97415.66
2019-05-16T14:29:17.972Z,97414.69
2019-05-16T14:31:50.764Z,97415.23
2019-05-16T14:34:20.180Z,97416.31
2019-05-16T14:36:50.747Z,97426.80
2019-05-16T14:39:22.615Z,97418.72
2019-05-16T14:41:56.802Z,97418.16
2019-05-16T14:44:28.641Z,97425.94
2019-05-16T14:46:59.263Z,97423.17
2019-05-16T14:49:29.037Z,97417.69
2019-05-16T14:51:58.626Z,97422.81
2019-05-16T14:54:27.934Z,97422.77
2019-05-16T14:57:01.096Z,97418.91
2019-05-16T14:59:30.863Z,97417.74
2019-05-16T15:02:00.867Z,97418.19
2019-05-16T15:04:31.300Z,97417.63
2019-05-16T15:07:01.683Z,97417.83
2019-05-16T15:09:32.176Z,97415.86
2019-05-16T15:12:03.633Z,97418.69
2019-05-16T15:14:33.943Z,97414.29
2019-05-16T15:17:06.848Z,97420.27
2019-05-16T15:19:36.409Z,97415.11
2019-05-16T15:22:08.063Z,97421.56
2019-05-16T15:24:38.874Z,97420.30
2019-05-16T15:27:09.268Z,97422.05
2019-05-16T15:29:41.279Z,97418.56
2019-05-16T15:32:12.068Z,97414.46
2019-05-16T15:34:43.548Z,97414.70
2019-05-16T15:37:12.952Z,97418.27
2019-05-16T15:39:43.413Z,97411.03
2019-05-16T15:42:12.888Z,97407.91
2019-05-16T15:44:43.283Z,97408.27
2019-05-16T15:47:13.805Z,97413.19
2019-05-16T15:49:47.672Z,97406.91
2019-05-16T15:52:16.844Z,97405.97
2019-05-16T15:54:47.992Z,97405.61
2019-05-16T15:57:18.455Z,97399.61
2019-05-16T15:59:48.018Z,97403.27
2019-05-16T16:02:17.695Z,97407.63
2019-05-16T16:04:48.236Z,97404.62
2019-05-16T16:07:18.248Z,97405.33
2019-05-16T16:09:48.790Z,97399.30
2019-05-16T16:12:20.177Z,97398.68
2019-05-16T16:14:50.665Z,97390.77
2019-05-16T16:17:21.169Z,97397.53
2019-05-16T16:19:52.617Z,97392.38
2019-05-16T16:22:21.921Z,97388.92
2019-05-16T16:24:51.276Z,97389.31
2019-05-16T16:27:22.001Z,97386.22
2019-05-16T16:29:52.471Z,97389.67
2019-05-16T16:32:23.078Z,97385.13
2019-05-16T16:34:53.498Z,97380.48
2019-05-16T16:37:23.992Z,97379.58
2019-05-16T16:39:54.610Z,97375.78
2019-05-16T16:42:27.184Z,97386.81
2019-05-16T16:44:57.314Z,97381.11
2019-05-16T16:47:27.714Z,97381.94
2019-05-16T16:49:59.321Z,97387.27
2019-05-16T16:52:29.981Z,97386.48
2019-05-16T16:55:00.276Z,97386.89
2019-05-16T16:57:29.763Z,97393.39
2019-05-16T17:00:00.867Z,97381.88
2019-05-16T17:02:31.291Z,97385.01
2019-05-16T17:05:01.957Z,97386.33
2019-05-16T17:07:32.617Z,97393.63
2019-05-16T17:10:02.028Z,97400.81
2019-05-16T17:12:32.487Z,97390.19
2019-05-16T17:15:03.131Z,97394.61
2019-05-16T17:17:33.613Z,97393.26
2019-05-16T17:20:07.527Z,97393.59
2019-05-16T17:22:37.879Z,97390.18
2019-05-16T17:25:13.081Z,97394.63
2019-05-16T17:27:42.443Z,97396.00
2019-05-16T17:30:19.011Z,97394.36
2019-05-16T17:32:50.737Z,97398.47
2019-05-16T17:35:20.565Z,97405.03
2019-05-16T17:37:49.539Z,97401.53
2019-05-16T17:40:23.037Z,97395.05
2019-05-16T17:42:56.850Z,97401.27
2019-05-16T17:45:27.196Z,97402.20
2019-05-16T17:47:57.188Z,97400.94
2019-05-16T17:50:26.808Z,97396.94
2019-05-16T17:52:57.825Z,97395.56
2019-05-16T17:55:28.620Z,97396.59
2019-05-16T17:57:59.946Z,97392.39
2019-05-16T18:00:29.193Z,97400.40
2019-05-16T18:02:59.209Z,97398.50
2019-05-16T18:05:29.910Z,97399.80
2019-05-16T18:08:01.257Z,97396.26
2019-05-16T18:10:30.617Z,97399.92
2019-05-16T18:13:01.022Z,97405.11
2019-05-16T18:15:31.950Z,97406.17
2019-05-16T18:18:02.461Z,97409.20
2019-05-16T18:20:34.329Z,97410.50
2019-05-16T18:23:03.845Z,97410.48
2019-05-16T18:25:36.429Z,97401.26
2019-05-16T18:28:08.113Z,97403.73
2019-05-16T18:30:40.651Z,97408.76
2019-05-16T18:33:10.050Z,97406.34
2019-05-16T18:35:40.535Z,97405.36
2019-05-16T18:38:11.030Z,97401.27
2019-05-16T18:40:40.823Z,97406.22
2019-05-16T18:43:11.546Z,97402.30
2019-05-16T18:45:42.259Z,97400.77
2019-05-16T18:48:11.761Z,97404.14
2019-05-16T18:50:43.999Z,97402.87
2019-05-16T18:53:17.814Z,97405.11
2019-05-16T18:55:47.657Z,97399.59
2019-05-16T18:58:18.269Z,97398.66
2019-05-16T19:00:48.870Z,97402.76
2019-05-16T19:03:21.248Z,97399.72
2019-05-16T19:05:50.755Z,97402.48
2019-05-16T19:08:20.510Z,97401.30
2019-05-16T19:10:49.974Z,97397.23
2019-05-16T19:13:24.544Z,97392.24
2019-05-16T19:15:57.069Z,97391.47
2019-05-16T19:18:27.133Z,97394.03
2019-05-16T19:20:57.107Z,97393.91
2019-05-16T19:23:27.732Z,97391.34
2019-05-16T19:25:57.179Z,97393.81
2019-05-16T19:28:29.104Z,97389.11
2019-05-16T19:30:59.679Z,97393.98
2019-05-16T19:33:30.526Z,97398.78
2019-05-16T19:36:01.115Z,97396.88
2019-05-16T19:38:32.976Z,97396.59
2019-05-16T19:41:08.056Z,97389.41
2019-05-16T19:43:37.196Z,97389.88
2019-05-16T19:46:08.208Z,97386.16
2019-05-16T19:48:37.592Z,97387.62
2019-05-16T19:51:08.405Z,97387.73
2019-05-16T19:53:40.338Z,97380.55
2019-05-16T19:56:10.838Z,97382.37
2019-05-16T19:58:40.207Z,97383.75
2019-05-16T20:01:09.558Z,97384.98
2019-05-16T20:03:38.968Z,97384.09
2019-05-16T20:06:09.543Z,97392.16
2019-05-16T20:08:39.950Z,97390.16
2019-05-16T20:11:12.538Z,97392.55
2019-05-16T20:13:44.092Z,97390.32
2019-05-16T20:16:13.616Z,97391.65
2019-05-16T20:18:43.085Z,97394.20
2019-05-16T20:21:12.507Z,97391.77
2019-05-16T20:23:44.436Z,97389.89
2019-05-16T20:26:16.722Z,97391.08
2019-05-16T20:28:47.454Z,97382.33
2019-05-16T20:31:17.174Z,97383.82
2019-05-16T20:33:47.051Z,97373.95
2019-05-16T20:36:17.394Z,97384.99
2019-05-16T20:38:47.941Z,97380.75
2019-05-16T20:41:18.826Z,97379.08
2019-05-16T20:43:49.482Z,97371.86
2019-05-16T20:46:21.047Z,97374.91
2019-05-16T20:48:51.468Z,97374.61
2019-05-16T20:51:20.972Z,97374.37
2019-05-16T20:53:50.509Z,97370.92
2019-05-16T20:56:22.871Z,97374.89
2019-05-16T20:58:53.394Z,97368.97
2019-05-16T21:01:23.888Z,97369.08
2019-05-16T21:03:54.305Z,97368.97
2019-05-16T21:06:26.505Z,97358.91
2019-05-16T21:08:58.160Z,97361.98
2019-05-16T21:11:27.607Z,97359.75
2019-05-16T21:13:58.235Z,97364.20
2019-05-16T21:16:29.977Z,97358.73
2019-05-16T21:19:00.527Z,97359.64
2019-05-16T21:21:31.419Z,97354.64
2019-05-16T21:24:01.820Z,97355.53
2019-05-16T21:26:32.435Z,97354.16
2019-05-16T21:29:01.842Z,97351.13
2019-05-16T21:31:32.724Z,97349.02
2019-05-16T21:34:04.114Z,97350.61
2019-05-16T21:36:33.471Z,97348.47
2019-05-16T21:39:06.413Z,97343.03
2019-05-16T21:41:38.437Z,97343.56
2019-05-16T21:44:09.144Z,97344.90
2019-05-16T21:46:38.539Z,97349.97
2019-05-16T21:49:09.011Z,97354.84
2019-05-16T21:51:39.669Z,97347.78
2019-05-16T21:54:09.723Z,97343.16
2019-05-16T21:56:40.226Z,97336.47
2019-05-16T21:59:10.804Z,97332.38
2019-05-16T22:01:41.189Z,97334.56
2019-05-16T22:04:09.746Z,97327.97
2019-05-16T22:06:38.551Z,97322.03
2019-05-16T22:09:09.233Z,97320.21
2019-05-16T22:11:37.749Z,97318.56
2019-05-16T22:14:08.575Z,97320.48
2019-05-16T22:16:38.360Z,97317.39
2019-05-16T22:19:10.429Z,97311.59
2019-05-16T22:21:43.138Z,97312.55
2019-05-16T22:24:13.956Z,97313.82
2019-05-16T22:26:46.527Z,97314.62
2019-05-16T22:29:17.141Z,97309.35
2019-05-16T22:31:47.576Z,97305.20
2019-05-16T22:34:18.085Z,97308.63
2019-05-16T22:36:49.384Z,97301.06
2019-05-16T22:39:21.508Z,97301.06
2019-05-16T22:41:54.210Z,97304.41
2019-05-16T22:44:27.092Z,97303.73
2019-05-16T22:46:56.629Z,97297.09
2019-05-16T22:49:27.531Z,97299.48
2019-05-16T22:51:58.130Z,97297.17
2019-05-16T22:54:27.538Z,97289.26
2019-05-16T22:56:57.285Z,97294.75
2019-05-16T22:59:27.208Z,97286.03
2019-05-16T23:01:56.984Z,97290.84
2019-05-16T23:04:27.344Z,97285.38
2019-05-16T23:06:56.847Z,97284.93
2019-05-16T23:09:27.095Z,97280.21
2019-05-16T23:11:56.525Z,97282.77
2019-05-16T23:14:26.766Z,97281.60
2019-05-16T23:16:57.529Z,97283.70
2019-05-16T23:19:28.102Z,97280.61
2019-05-16T23:21:58.615Z,97277.70
2019-05-16T23:24:29.013Z,97277.68
2019-05-16T23:26:58.438Z,97270.88
2019-05-16T23:29:28.719Z,97267.97
2019-05-16T23:31:59.187Z,97272.47
2019-05-16T23:34:29.800Z,97269.62
2019-05-16T23:36:59.173Z,97267.38
2019-05-16T23:39:29.793Z,97267.34
2019-05-16T23:41:59.143Z,97269.05
2019-05-16T23:44:28.539Z,97260.52
2019-05-16T23:46:58.831Z,97263.91
2019-05-16T23:49:28.276Z,97269.23
2019-05-16T23:51:58.672Z,97264.19
2019-05-16T23:54:29.302Z,97262.98
2019-05-16T23:57:01.377Z,97256.91
2019-05-16T23:59:31.881Z,97249.84
